Grand Princess — ZCBU5 — position and weather

sailwx.info

Track history (hours):
 
Tides and Currents Weather Stations Pressure Air Temp Water Temp Dewpoint Dewpoint Depression Visibility Wind Speed Wind Dir Waves Ship Positions

Grand Princess

Operator: Princess Cruises

Last reported at 2016-Jun-23 07:00 UTC. Time now 2016-Jun-25 23:21 UTC.
Position N 54°24' W 133°48'.

Length 289.5 m; beam 36 m; draft 8.5 m.

Type: Ship. MMSI: 310327000.

Wind from 190 at 4 knots

Waves 0.5 meters (2 feet), 1 second period

Barometer 1018.1 mb
Air temperature 12.0 ° C
Visibility: greater than 10.8 NM
Dewpoint 10.1 ° C
Water temperature 12.0 ° C

Date/timePositionNaut miles runAvg speedWind from/ knotsBaromVisibWave heightAir tempDewpointWater temp
2016-Jun-23 07:00N 54°24' W 133°48'56720.7 190 / 41018.110.8 0.512.010.112.0
2016-Jun-22 03:33N 45°40' W 128°12'2120.4
2016-Jun-22 02:32N 45°21' W 127°60'1017.6
2016-Jun-22 02:00N 45°12' W 127°54'1024.0 180 / 111025.810.8 0.514.010.517.2
2016-Jun-22 01:33N 45°02' W 127°48'4720.9
2016-Jun-21 23:19N 44°20' W 127°20'2020.4
2016-Jun-21 22:19N 44°01' W 127°09'16820.2
2016-Jun-21 14:00N 41°30' W 125°30'9720.1 020 / 121027.110.8 0.515.012.514.0
2016-Jun-21 09:11N 40°01' W 124°41'1219.6
2016-Jun-21 08:33N 39°49' W 124°34'1919.4
2016-Jun-21 07:33N 39°32' W 124°24'3819.1
2016-Jun-21 05:33N 38°57' W 124°03'1919.2
2016-Jun-21 04:34N 38°41' W 123°50'2019.5
2016-Jun-21 03:33N 38°25' W 123°35'1919.4
2016-Jun-21 02:33N 38°10' W 123°21'2019.6
2016-Jun-21 01:34N 37°56' W 123°03'1818.1
2016-Jun-21 00:33N 37°47' W 122°42'1212.4
2016-Jun-20 23:34N 37°49' W 122°27'3 2.5
2016-Jun-20 22:31N 37°48' W 122°24'0 0.0
2016-Jun-20 21:31N 37°48' W 122°24'0 0.0
2016-Jun-20 20:21N 37°48' W 122°24'0 0.0
2016-Jun-20 19:24N 37°48' W 122°24'0 0.0
2016-Jun-20 18:32N 37°48' W 122°24'0 0.0
2016-Jun-20 17:32N 37°48' W 122°24'0 0.0
2016-Jun-20 16:32N 37°48' W 122°24'0 0.0
2016-Jun-20 15:31N 37°48' W 122°24'0 0.0
2016-Jun-20 14:31N 37°48' W 122°24'0 0.1
2016-Jun-20 13:34N 37°48' W 122°24'9 8.5
2016-Jun-20 12:33N 37°47' W 122°35'1211.8
2016-Jun-20 11:34N 37°48' W 122°49'2019.9
2016-Jun-20 10:34N 37°58' W 123°11'2020.0
2016-Jun-20 09:34N 38°14' W 123°27'2020.5
2016-Jun-20 08:34N 38°30' W 123°42'2020.0
2016-Jun-20 07:34N 38°47' W 123°57'1424.0
2016-Jun-20 07:00N 39°00' W 124°00'2618.0 340 / 441019.510.8 2.011.510.614.0
2016-Jun-20 05:33N 39°24' W 124°12'25819.7
2016-Jun-19 16:30N 43°39' W 124°59'1920.1
2016-Jun-19 15:33N 43°59' W 125°00'2220.3
2016-Jun-19 14:27N 44°21' W 125°02'1820.1
2016-Jun-19 13:33N 44°39' W 125°03'2519.8
2016-Jun-19 12:17N 45°04' W 125°05'1419.7
2016-Jun-19 11:33N 45°19' W 125°07'1919.5
2016-Jun-19 10:33N 45°38' W 125°08'2019.7
2016-Jun-19 09:34N 45°57' W 125°09'1919.4
2016-Jun-19 08:33N 46°17' W 125°11'1919.2
2016-Jun-19 07:34N 46°36' W 125°13'1919.2
2016-Jun-19 06:33N 46°55' W 125°14'5 8.7
2016-Jun-19 06:00N 47°00' W 125°12'1532.8 310 / 161026.810.8 0.513.5 9.916.0
2016-Jun-19 05:32N 47°15' W 125°16'4218.8
2016-Jun-19 03:18N 47°57' W 125°18'1518.8
2016-Jun-19 02:31N 48°11' W 125°14'1819.2
2016-Jun-19 01:34N 48°28' W 125°04'1818.1
2016-Jun-19 00:33N 48°29' W 124°36'1918.9
2016-Jun-18 23:33N 48°21' W 124°10'1818.3
2016-Jun-18 22:33N 48°16' W 123°44'1414.1
2016-Jun-18 21:33N 48°23' W 123°25'2 2.3
2016-Jun-18 20:31N 48°25' W 123°23'0 0.0
2016-Jun-18 19:31N 48°25' W 123°23'0 0.0
2016-Jun-18 18:33N 48°25' W 123°23'0 0.0
2016-Jun-18 17:33N 48°25' W 123°23'0 0.0
2016-Jun-18 16:32N 48°25' W 123°23'0 0.0
2016-Jun-18 15:32N 48°25' W 123°23'0 0.0
2016-Jun-18 14:32N 48°25' W 123°23'1 1.1
2016-Jun-18 13:33N 48°24' W 123°25'1211.8
2016-Jun-18 12:34N 48°13' W 123°32'1615.6
2016-Jun-18 11:33N 48°14' W 123°55'1616.2
2016-Jun-18 10:33N 48°20' W 124°17'1716.6
2016-Jun-18 09:34N 48°27' W 124°40'1717.1
2016-Jun-18 08:33N 48°28' W 125°05'1616.2
2016-Jun-18 07:34N 48°36' W 125°27'1616.4
2016-Jun-18 06:34N 48°46' W 125°47'1716.8
2016-Jun-18 05:34N 48°56' W 126°08'1717.0
2016-Jun-18 04:33N 49°05' W 126°29'1716.9
2016-Jun-18 03:34N 49°15' W 126°50'1717.2
2016-Jun-18 02:33N 49°26' W 127°11'1817.5
2016-Jun-18 01:33N 49°37' W 127°32'1717.4
2016-Jun-18 00:33N 49°48' W 127°53'56812.5
2016-Jun-16 03:11N 58°09' W 135°26'  
Track history (hours):
 
Tides and Currents Weather Stations Pressure Air Temp Water Temp Dewpoint Dewpoint Depression Visibility Wind Speed Wind Dir Waves Ship Positions

Grand Princess

Operator: Princess Cruises

Last reported at 2016-Jun-23 07:00 UTC. Time now 2016-Jun-25 23:21 UTC.
Position N 54°24' W 133°48'.

Length 289.5 m; beam 36 m; draft 8.5 m.

Type: Ship. MMSI: 310327000.

Wind from 190 at 4 knots

Waves 0.5 meters (2 feet), 1 second period

Barometer 1018.1 mb
Air temperature 12.0 ° C
Visibility: greater than 10.8 NM
Dewpoint 10.1 ° C
Water temperature 12.0 ° C

Date/timePositionNaut miles runAvg speedWind from/ knotsBaromVisibWave heightAir tempDewpointWater temp
2016-Jun-23 07:00N 54°24' W 133°48'56720.7 190 / 41018.110.8 0.512.010.112.0
2016-Jun-22 03:33N 45°40' W 128°12'2120.4
2016-Jun-22 02:32N 45°21' W 127°60'1017.6
2016-Jun-22 02:00N 45°12' W 127°54'1024.0 180 / 111025.810.8 0.514.010.517.2
2016-Jun-22 01:33N 45°02' W 127°48'4720.9
2016-Jun-21 23:19N 44°20' W 127°20'2020.4
2016-Jun-21 22:19N 44°01' W 127°09'16820.2
2016-Jun-21 14:00N 41°30' W 125°30'9720.1 020 / 121027.110.8 0.515.012.514.0
2016-Jun-21 09:11N 40°01' W 124°41'1219.6
2016-Jun-21 08:33N 39°49' W 124°34'1919.4
2016-Jun-21 07:33N 39°32' W 124°24'3819.1
2016-Jun-21 05:33N 38°57' W 124°03'1919.2
2016-Jun-21 04:34N 38°41' W 123°50'2019.5
2016-Jun-21 03:33N 38°25' W 123°35'1919.4
2016-Jun-21 02:33N 38°10' W 123°21'2019.6
2016-Jun-21 01:34N 37°56' W 123°03'1818.1
2016-Jun-21 00:33N 37°47' W 122°42'1212.4
2016-Jun-20 23:34N 37°49' W 122°27'3 2.5
2016-Jun-20 22:31N 37°48' W 122°24'0 0.0
2016-Jun-20 21:31N 37°48' W 122°24'0 0.0
2016-Jun-20 20:21N 37°48' W 122°24'0 0.0
2016-Jun-20 19:24N 37°48' W 122°24'0 0.0
2016-Jun-20 18:32N 37°48' W 122°24'0 0.0
2016-Jun-20 17:32N 37°48' W 122°24'0 0.0
2016-Jun-20 16:32N 37°48' W 122°24'0 0.0
2016-Jun-20 15:31N 37°48' W 122°24'0 0.0
2016-Jun-20 14:31N 37°48' W 122°24'0 0.1
2016-Jun-20 13:34N 37°48' W 122°24'9 8.5
2016-Jun-20 12:33N 37°47' W 122°35'1211.8
2016-Jun-20 11:34N 37°48' W 122°49'2019.9
2016-Jun-20 10:34N 37°58' W 123°11'2020.0
2016-Jun-20 09:34N 38°14' W 123°27'2020.5
2016-Jun-20 08:34N 38°30' W 123°42'2020.0
2016-Jun-20 07:34N 38°47' W 123°57'1424.0
2016-Jun-20 07:00N 39°00' W 124°00'2618.0 340 / 441019.510.8 2.011.510.614.0
2016-Jun-20 05:33N 39°24' W 124°12'25819.7
2016-Jun-19 16:30N 43°39' W 124°59'1920.1
2016-Jun-19 15:33N 43°59' W 125°00'2220.3
2016-Jun-19 14:27N 44°21' W 125°02'1820.1
2016-Jun-19 13:33N 44°39' W 125°03'2519.8
2016-Jun-19 12:17N 45°04' W 125°05'1419.7
2016-Jun-19 11:33N 45°19' W 125°07'1919.5
2016-Jun-19 10:33N 45°38' W 125°08'2019.7
2016-Jun-19 09:34N 45°57' W 125°09'1919.4
2016-Jun-19 08:33N 46°17' W 125°11'1919.2
2016-Jun-19 07:34N 46°36' W 125°13'1919.2
2016-Jun-19 06:33N 46°55' W 125°14'5 8.7
2016-Jun-19 06:00N 47°00' W 125°12'1532.8 310 / 161026.810.8 0.513.5 9.916.0
2016-Jun-19 05:32N 47°15' W 125°16'4218.8
2016-Jun-19 03:18N 47°57' W 125°18'1518.8
2016-Jun-19 02:31N 48°11' W 125°14'1819.2
2016-Jun-19 01:34N 48°28' W 125°04'1818.1
2016-Jun-19 00:33N 48°29' W 124°36'1918.9
2016-Jun-18 23:33N 48°21' W 124°10'1818.3
2016-Jun-18 22:33N 48°16' W 123°44'1414.1
2016-Jun-18 21:33N 48°23' W 123°25'2 2.3
2016-Jun-18 20:31N 48°25' W 123°23'0 0.0
2016-Jun-18 19:31N 48°25' W 123°23'0 0.0
2016-Jun-18 18:33N 48°25' W 123°23'0 0.0
2016-Jun-18 17:33N 48°25' W 123°23'0 0.0
2016-Jun-18 16:32N 48°25' W 123°23'0 0.0
2016-Jun-18 15:32N 48°25' W 123°23'0 0.0
2016-Jun-18 14:32N 48°25' W 123°23'1 1.1
2016-Jun-18 13:33N 48°24' W 123°25'1211.8
2016-Jun-18 12:34N 48°13' W 123°32'1615.6
2016-Jun-18 11:33N 48°14' W 123°55'1616.2
2016-Jun-18 10:33N 48°20' W 124°17'1716.6
2016-Jun-18 09:34N 48°27' W 124°40'1717.1
2016-Jun-18 08:33N 48°28' W 125°05'1616.2
2016-Jun-18 07:34N 48°36' W 125°27'1616.4
2016-Jun-18 06:34N 48°46' W 125°47'1716.8
2016-Jun-18 05:34N 48°56' W 126°08'1717.0
2016-Jun-18 04:33N 49°05' W 126°29'1716.9
2016-Jun-18 03:34N 49°15' W 126°50'1717.2
2016-Jun-18 02:33N 49°26' W 127°11'1817.5
2016-Jun-18 01:33N 49°37' W 127°32'1717.4
2016-Jun-18 00:33N 49°48' W 127°53'56812.5
2016-Jun-16 03:11N 58°09' W 135°26'  

Dump ship's entire track history